Terminal Aerodrome Forecast
Issued by NWS Wilmington, NC

Home | Current Version | Previous Version | Text Only | Print | Product List | Glossary On
Versions: 1 2 3 4 5 6 7 8 9 10 11 12
000
FTUS42 KILM 201100
TAFFLO
TAF
KFLO 201120Z 2012/2112 VRB03KT P6SM SKC
     FM201500 20006KT P6SM FEW040
     FM202300 21003KT P6SM BKN040
     FM210600 VRB02KT P6SM SCT040=

USA.gov is the U.S. government's official web portal to all federal, state and local government web resources and services.